Basin, Wyoming
Current Conditions -  °F | °C
As of 3:53 PM on Sunday 21 Dec 2014 (Local Time) from KGEY Reporting Station
Broken Clouds Broken Clouds  
Wind Chill: 32°   Ceiling: 9000
Heat Index: 36°   Visibility: 10mi
Dew Point: 33°   Wind: 5mph
Humidity: 89%   Direction: 270°W
Pressure: 29.55"   Gusts: NA
Location:  44.38°N, 108.04°W
Report Text: KGEY 212253Z AUTO 27004KT 10SM FEW050 BKN090 BKN120 02/01 A2955 RMK AO2 RAE38 SLP041 P0001 T00220006
Loading
Personal Weather Stations






























Interactive Weather Map New forecast layout! Learn more

10-Day Weather Forecast

Advertisements
Track Severe Weather on mobile